createdAt,value
2018-06-04T05:19:07.590Z,5.67
2018-06-04T05:24:02.171Z,6.60
2018-06-04T05:28:56.740Z,5.60
2018-06-04T05:33:51.471Z,5.77
2018-06-04T05:38:46.139Z,5.30
2018-06-04T05:43:40.787Z,5.90
2018-06-04T05:48:35.333Z,6.00
2018-06-04T05:53:36.633Z,6.07
2018-06-04T05:58:31.146Z,5.80
2018-06-04T06:03:25.698Z,5.37
2018-06-04T06:08:20.268Z,5.23
2018-06-04T06:13:14.810Z,5.30
2018-06-04T06:18:09.410Z,5.33
2018-06-04T06:23:04.011Z,5.73
2018-06-04T06:27:58.606Z,6.10
2018-06-04T06:32:53.160Z,5.70
2018-06-04T06:37:47.734Z,5.67
2018-06-04T06:42:42.292Z,5.40
2018-06-04T06:47:36.827Z,5.80
2018-06-04T06:52:31.417Z,5.62
2018-06-04T06:57:25.917Z,5.60
2018-06-04T07:02:20.752Z,5.47
2018-06-04T07:07:15.306Z,4.90
2018-06-04T07:12:09.853Z,5.80
2018-06-04T07:17:04.425Z,5.95
2018-06-04T07:21:58.977Z,5.00
2018-06-04T07:26:53.233Z,5.22
2018-06-04T07:31:47.780Z,5.60
2018-06-04T07:36:42.327Z,5.28
2018-06-04T07:41:36.926Z,5.55
2018-06-04T07:46:31.587Z,4.62
2018-06-04T07:51:26.166Z,4.17
2018-06-04T07:56:20.701Z,4.17
2018-06-04T08:01:15.280Z,4.90
2018-06-04T08:06:09.883Z,4.45
2018-06-04T08:11:04.471Z,4.33
2018-06-04T08:15:59.055Z,3.72
2018-06-04T08:20:53.607Z,4.20
2018-06-04T08:25:48.150Z,4.92
2018-06-04T08:30:42.724Z,4.20
2018-06-04T08:35:37.280Z,4.40
2018-06-04T08:40:31.827Z,4.83
2018-06-04T08:45:26.361Z,5.00
2018-06-04T08:50:20.926Z,4.35
2018-06-04T09:00:12.339Z,4.80
2018-06-04T09:05:06.923Z,4.80
2018-06-04T09:10:01.474Z,4.08
2018-06-04T09:14:56.060Z,4.65
2018-06-04T09:19:50.642Z,3.95
2018-06-04T09:24:45.219Z,4.22
2018-06-04T09:29:39.820Z,4.03
2018-06-04T09:34:35.418Z,3.37
2018-06-04T09:39:30.011Z,3.55
2018-06-04T09:44:24.645Z,3.00
2018-06-04T09:49:19.183Z,2.92
2018-06-04T09:54:13.839Z,3.85
2018-06-04T09:59:08.394Z,3.35
2018-06-04T10:04:03.094Z,3.35
2018-06-04T10:08:57.632Z,3.70
2018-06-04T10:13:52.203Z,4.45
2018-06-04T10:18:47.354Z,4.10
2018-06-04T10:23:41.964Z,4.00
2018-06-04T10:28:36.491Z,4.62
2018-06-04T10:33:31.054Z,4.08
2018-06-04T10:38:25.613Z,4.05
2018-06-04T10:43:20.154Z,4.35
2018-06-04T10:48:14.705Z,4.12
2018-06-04T10:53:09.283Z,4.22
2018-06-04T10:58:03.859Z,4.30
2018-06-04T11:02:58.404Z,3.67
2018-06-04T11:07:52.978Z,4.03
2018-06-04T11:12:47.587Z,4.22
2018-06-04T11:17:42.383Z,4.33
2018-06-04T11:22:36.943Z,3.75
2018-06-04T11:27:31.495Z,4.30
2018-06-04T11:32:26.088Z,3.95
2018-06-04T11:37:20.663Z,4.35
2018-06-04T11:42:15.240Z,3.90
2018-06-04T11:47:09.796Z,3.60
2018-06-04T11:52:04.423Z,3.72
2018-06-04T11:56:59.003Z,4.00
2018-06-04T12:01:53.585Z,3.45
2018-06-04T12:06:48.145Z,3.60
2018-06-04T12:11:42.707Z,3.58
2018-06-04T12:16:37.277Z,3.80
2018-06-04T12:21:31.862Z,3.55
2018-06-04T12:26:26.425Z,3.60
2018-06-04T12:31:20.995Z,2.90
2018-06-04T12:36:15.567Z,3.22
2018-06-04T12:41:10.226Z,3.27
2018-06-04T12:46:04.916Z,3.00
2018-06-04T12:50:59.510Z,3.20
2018-06-04T12:55:54.069Z,2.80
2018-06-04T13:00:48.594Z,2.87
2018-06-04T13:05:43.204Z,3.12
2018-06-04T13:10:37.780Z,2.85
2018-06-04T13:15:32.418Z,3.10
2018-06-04T13:20:27.033Z,2.67
2018-06-04T13:25:21.637Z,3.35
2018-06-04T13:30:16.215Z,2.70
2018-06-04T13:35:10.786Z,2.77
2018-06-04T13:40:05.038Z,2.77
2018-06-04T13:44:59.632Z,2.42
2018-06-04T13:49:54.215Z,2.85
2018-06-04T13:54:48.462Z,2.42
2018-06-04T13:59:43.048Z,2.45
2018-06-04T14:04:37.579Z,2.20
2018-06-04T14:09:32.163Z,2.10
2018-06-04T14:14:26.785Z,2.08
2018-06-04T14:19:21.346Z,2.30
2018-06-04T14:24:15.635Z,2.15
2018-06-04T14:29:10.182Z,2.27
2018-06-04T14:34:04.785Z,2.30
2018-06-04T14:38:59.437Z,2.17
2018-06-04T14:43:53.999Z,2.17
2018-06-04T14:48:48.571Z,2.40
2018-06-04T14:53:42.861Z,2.45
2018-06-04T14:58:37.379Z,2.27
2018-06-04T15:03:31.942Z,2.30
2018-06-04T15:08:26.498Z,2.12
2018-06-04T15:13:21.074Z,2.10
2018-06-04T15:18:15.680Z,2.15
2018-06-04T15:23:10.218Z,2.12
2018-06-04T15:28:04.487Z,2.45
2018-06-04T15:32:59.086Z,2.10
2018-06-04T15:37:53.754Z,2.20
2018-06-04T15:42:48.311Z,2.50
2018-06-04T15:47:42.874Z,2.60
2018-06-04T15:52:37.455Z,2.65
2018-06-04T15:57:32.021Z,2.50
2018-06-04T16:02:26.596Z,2.35
2018-06-04T16:07:21.163Z,2.60
2018-06-04T16:12:15.757Z,2.65
2018-06-04T16:17:10.314Z,3.10
2018-06-04T16:22:04.913Z,2.72
2018-06-04T16:26:59.398Z,3.08
2018-06-04T16:31:53.951Z,2.60
2018-06-04T16:36:48.555Z,2.83
2018-06-04T16:41:43.137Z,3.25
2018-06-04T16:46:37.681Z,3.42
2018-06-04T16:51:32.259Z,5.67
2018-06-04T16:56:26.891Z,3.35
2018-06-04T17:01:21.495Z,2.70
2018-06-04T17:06:16.081Z,2.90
2018-06-04T17:11:10.619Z,2.80
2018-06-04T17:16:05.867Z,2.60
2018-06-04T17:21:00.424Z,2.20
2018-06-04T17:25:54.979Z,1.95
2018-06-04T17:30:49.600Z,2.20
2018-06-04T17:35:44.152Z,2.80
2018-06-04T17:40:38.710Z,3.05
2018-06-04T17:45:33.274Z,2.85
2018-06-04T17:50:27.839Z,2.67
2018-06-04T17:55:22.419Z,2.33
2018-06-04T18:00:17.026Z,2.10
2018-06-04T18:05:11.607Z,1.80
2018-06-04T18:10:06.276Z,2.00
2018-06-04T18:15:00.878Z,1.80
2018-06-04T18:19:55.524Z,1.55
2018-06-04T18:24:50.121Z,1.62
2018-06-04T18:29:44.722Z,1.80
2018-06-04T18:34:39.330Z,1.77
2018-06-04T18:39:33.955Z,1.70
2018-06-04T18:44:28.574Z,1.65
2018-06-04T18:49:23.071Z,1.70
2018-06-04T18:54:17.719Z,1.60
2018-06-04T18:59:12.305Z,1.80
2018-06-04T19:04:06.937Z,2.30
2018-06-04T19:09:01.623Z,2.47
2018-06-04T19:13:56.099Z,2.77
2018-06-04T19:18:50.720Z,1.92
2018-06-04T19:23:45.316Z,2.00
2018-06-04T19:28:39.931Z,2.10
2018-06-04T19:33:34.548Z,2.00
2018-06-04T19:38:29.167Z,1.80
2018-06-04T19:43:23.738Z,1.82
2018-06-04T19:48:18.357Z,1.92
2018-06-04T19:53:12.926Z,2.10
2018-06-04T19:58:07.514Z,1.90
2018-06-04T20:03:02.165Z,2.00
2018-06-04T20:07:56.708Z,1.87
2018-06-04T20:12:51.292Z,2.42
2018-06-04T20:17:45.819Z,2.22
2018-06-04T20:22:40.414Z,2.05
2018-06-04T20:27:34.978Z,1.92
2018-06-04T20:32:29.560Z,2.08
2018-06-04T20:37:24.117Z,2.92
2018-06-04T20:42:18.729Z,2.90
2018-06-04T20:47:13.347Z,2.40
2018-06-04T20:52:08.036Z,2.45
2018-06-04T20:57:02.622Z,2.72
2018-06-04T21:01:57.218Z,2.47
2018-06-04T21:06:51.794Z,2.43
2018-06-04T21:11:46.404Z,2.67
2018-06-04T21:16:40.971Z,2.50
2018-06-04T21:21:35.512Z,2.80
2018-06-04T21:26:30.277Z,2.67
2018-06-04T21:31:24.840Z,2.43
2018-06-04T21:36:19.406Z,2.70
2018-06-04T21:41:14.000Z,3.30
2018-06-04T21:46:08.225Z,2.80
2018-06-04T21:51:02.796Z,2.90
2018-06-04T21:55:57.062Z,2.90
2018-06-04T22:00:51.769Z,2.83
2018-06-04T22:05:46.346Z,2.87
2018-06-04T22:10:40.949Z,3.40
2018-06-04T22:15:35.560Z,3.60
2018-06-04T22:20:30.163Z,3.50
2018-06-04T22:25:24.747Z,3.80
2018-06-04T22:30:19.302Z,3.93
2018-06-04T22:35:13.838Z,3.70
2018-06-04T22:40:08.407Z,3.70
2018-06-04T22:45:02.970Z,3.20
2018-06-04T22:49:57.550Z,3.70
2018-06-04T22:54:52.140Z,3.50
2018-06-04T22:59:46.697Z,3.50
2018-06-04T23:04:41.241Z,3.43
2018-06-04T23:09:35.778Z,3.73
2018-06-04T23:14:30.298Z,3.90
2018-06-04T23:19:24.876Z,3.57
2018-06-04T23:24:19.453Z,3.40
2018-06-04T23:29:13.958Z,3.60
2018-06-04T23:34:08.514Z,3.63
2018-06-04T23:39:03.124Z,3.50
2018-06-04T23:43:57.731Z,3.00
2018-06-04T23:48:52.253Z,3.13
2018-06-04T23:53:46.805Z,3.17
2018-06-04T23:58:41.314Z,2.90
